Time;durP1;ratioP1;P1;durP2;ratioP2;P2;SDS_P1;SDS_P2;PMS_P1;PMS_P2;Temp;Humidity;BMP_temperature;BMP_pressure;BME280_temperature;BME280_humidity;BME280_pressure;Samples;Min_cycle;Max_cycle;Signal;HPM_P1;HPM_P2
2021/06/25 00:01:10;;;;;;;13.82;4.38;;;;;;;26.99;50.50;94797.88;2973965;39;20071;-82
2021/06/25 00:03:12;;;;;;;17.98;5.15;;;;;;;26.95;50.47;94795.72;2975405;39;20167;-81
2021/06/25 00:05:14;;;;;;;13.15;5.80;;;;;;;27.01;50.41;94798.41;2974384;39;20056;-81
2021/06/25 00:07:16;;;;;;;20.23;4.80;;;;;;;26.95;51.12;94794.88;2973803;39;20269;-72
2021/06/25 00:09:18;;;;;;;18.98;6.30;;;;;;;26.90;51.17;94797.53;2975462;39;20132;-73
2021/06/25 00:11:19;;;;;;;20.55;5.50;;;;;;;26.91;51.27;94789.22;2974033;39;20099;-73
2021/06/25 00:13:21;;;;;;;14.25;5.03;;;;;;;26.94;51.07;94794.06;2973421;40;20139;-73
2021/06/25 00:15:23;;;;;;;17.67;5.75;;;;;;;26.98;50.83;94799.75;2971747;39;20113;-72
2021/06/25 00:17:25;;;;;;;17.80;5.07;;;;;;;27.00;50.70;94804.88;2973710;40;20077;-73
2021/06/25 00:19:26;;;;;;;17.85;5.10;;;;;;;27.00;50.87;94804.88;2974003;40;20132;-74
2021/06/25 00:21:28;;;;;;;16.98;5.07;;;;;;;27.03;51.05;94812.41;2973524;39;20128;-71
2021/06/25 00:23:30;;;;;;;14.40;5.10;;;;;;;27.05;50.61;94815.66;2972294;39;20060;-73
2021/06/25 00:25:32;;;;;;;18.00;5.43;;;;;;;27.04;50.66;94816.72;2974676;39;20052;-74
2021/06/25 00:27:34;;;;;;;12.52;4.60;;;;;;;27.03;50.93;94817.78;2972795;39;20056;-71
2021/06/25 00:29:36;;;;;;;15.52;5.25;;;;;;;26.98;51.24;94825.84;2973664;39;20064;-73
2021/06/25 00:31:39;;;;;;;14.95;5.22;;;;;;;26.89;51.91;94818.25;2973706;39;20056;-73
2021/06/25 00:33:41;;;;;;;14.90;5.15;;;;;;;26.89;51.44;94812.06;2972332;40;20056;-73
2021/06/25 00:35:42;;;;;;;16.73;5.10;;;;;;;26.85;51.10;94814.44;2968162;39;20600;-74
2021/06/25 00:37:44;;;;;;;14.38;5.80;;;;;;;26.82;51.25;94811.47;2973019;40;20137;-72
2021/06/25 00:39:46;;;;;;;16.50;5.57;;;;;;;26.82;51.46;94806.09;2972475;39;20264;-73
2021/06/25 00:41:48;;;;;;;22.23;5.45;;;;;;;26.80;51.39;94803.66;2968836;39;20117;-72
2021/06/25 00:43:50;;;;;;;14.27;5.50;;;;;;;26.80;51.40;94800.97;2974494;39;20189;-72
2021/06/25 00:45:51;;;;;;;20.30;5.80;;;;;;;26.79;51.08;94796.66;2970988;39;20333;-73
2021/06/25 00:47:53;;;;;;;15.88;5.22;;;;;;;26.80;50.88;94800.97;2969946;39;20077;-72
2021/06/25 00:49:55;;;;;;;14.77;5.35;;;;;;;26.80;51.26;94800.97;2969446;39;20147;-72
2021/06/25 00:51:57;;;;;;;12.23;5.03;;;;;;;26.75;50.89;94803.63;2973751;39;20052;-72
2021/06/25 00:53:58;;;;;;;13.77;4.88;;;;;;;26.77;51.07;94804.97;2969040;39;20129;-74
2021/06/25 00:56:00;;;;;;;11.32;5.10;;;;;;;26.74;51.89;94802.81;2972414;40;20059;-74
2021/06/25 00:58:02;;;;;;;14.60;5.20;;;;;;;26.41;52.89;94798.47;2968682;39;20044;-72
2021/06/25 01:00:04;;;;;;;15.65;5.90;;;;;;;26.06;53.60;94797.09;2974139;39;20040;-72
2021/06/25 01:02:07;;;;;;;14.25;5.68;;;;;;;25.66;54.79;94797.44;2975927;39;20136;-71
2021/06/25 01:04:12;;;;;;;16.30;5.80;;;;;;;25.67;54.60;94786.47;2976831;39;20341;-71
2021/06/25 01:06:33;;;;;;;21.17;6.88;;;;;;;25.81;54.13;94799.50;2966476;40;20172;-73
2021/06/25 01:08:37;;;;;;;13.18;5.35;;;;;;;25.90;54.10;94795.34;2973333;39;20055;-71
2021/06/25 01:10:41;;;;;;;18.73;6.25;;;;;;;25.91;53.88;94792.38;2970774;39;20105;-72
2021/06/25 01:12:43;;;;;;;16.25;5.95;;;;;;;25.98;53.33;94796.75;2972346;39;20088;-73
2021/06/25 01:14:45;;;;;;;19.55;7.20;;;;;;;25.91;53.37;94802.31;2973445;39;20055;-73
2021/06/25 01:16:47;;;;;;;12.52;5.75;;;;;;;25.32;53.68;94802.97;2973790;40;20464;-73
2021/06/25 01:18:49;;;;;;;16.52;6.20;;;;;;;25.44;53.46;94808.19;2975982;39;20413;-75
2021/06/25 01:20:55;;;;;;;20.55;7.47;;;;;;;25.51;53.24;94801.59;2972179;40;20063;-73
2021/06/25 01:22:57;;;;;;;17.23;5.43;;;;;;;25.42;53.50;94810.31;2973897;39;20059;-73
2021/06/25 01:25:06;;;;;;;12.13;5.82;;;;;;;25.01;54.83;94817.78;2971477;39;20052;-72
2021/06/25 01:27:08;;;;;;;17.70;5.72;;;;;;;25.13;54.57;94794.38;2971063;40;20064;-73
2021/06/25 01:29:09;;;;;;;20.10;6.57;;;;;;;25.26;54.54;94803.94;2971465;39;20510;-72
2021/06/25 01:31:45;;;;;;;15.25;6.07;;;;;;;24.96;55.42;94804.31;2970310;39;20084;-72
2021/06/25 01:33:48;;;;;;;19.70;6.65;;;;;;;24.96;55.42;94799.75;2972296;39;20132;-75
2021/06/25 01:35:53;;;;;;;19.40;5.70;;;;;;;25.07;54.93;94811.44;2972037;39;20051;-74
2021/06/25 01:37:54;;;;;;;15.02;6.03;;;;;;;24.73;56.21;94817.63;2975532;39;20092;-74
2021/06/25 01:39:56;;;;;;;15.35;5.63;;;;;;;24.68;56.30;94804.16;2970577;39;20051;-74
2021/06/25 01:41:58;;;;;;;20.30;6.30;;;;;;;24.82;56.20;94812.66;2973939;39;20120;-73
2021/06/25 01:44:00;;;;;;;14.10;6.43;;;;;;;24.92;56.09;94810.16;2970025;39;20056;-72
2021/06/25 01:46:02;;;;;;;16.85;6.38;;;;;;;25.00;55.81;94802.75;2979728;39;20182;-71
2021/06/25 01:48:04;;;;;;;17.27;6.53;;;;;;;25.05;55.77;94802.81;2969132;39;20401;-72
2021/06/25 01:50:09;;;;;;;17.02;6.43;;;;;;;25.13;55.41;94791.69;2964703;40;20132;-72
2021/06/25 01:52:20;;;;;;;15.77;7.05;;;;;;;25.25;55.29;94792.41;2973884;39;20128;-73
2021/06/25 01:54:22;;;;;;;17.38;6.80;;;;;;;25.33;54.88;94797.31;2968027;39;20122;-72
2021/06/25 01:56:24;;;;;;;23.90;8.02;;;;;;;25.27;55.41;94792.94;2972643;40;20056;-73
2021/06/25 01:58:27;;;;;;;17.33;7.05;;;;;;;25.11;55.91;94783.88;2972357;39;20060;-72
2021/06/25 02:00:29;;;;;;;27.25;7.63;;;;;;;25.16;55.58;94790.38;2971004;40;20306;-72
2021/06/25 02:02:31;;;;;;;18.50;7.20;;;;;;;25.22;55.30;94784.84;2972687;39;20044;-73
2021/06/25 02:04:33;;;;;;;17.05;6.20;;;;;;;25.10;55.37;94786.81;2969161;39;20054;-71
2021/06/25 02:06:35;;;;;;;18.92;6.50;;;;;;;25.03;55.91;94797.69;2974201;39;20744;-71
2021/06/25 02:08:41;;;;;;;26.05;6.75;;;;;;;24.56;56.73;94794.59;2972455;39;20052;-72
2021/06/25 02:10:42;;;;;;;16.77;6.93;;;;;;;24.65;56.60;94790.44;2972220;39;20357;-73
2021/06/25 02:12:44;;;;;;;18.52;6.88;;;;;;;24.78;56.60;94794.66;2972101;39;20413;-73
2021/06/25 02:14:46;;;;;;;25.60;6.53;;;;;;;24.94;56.37;94793.84;2975498;40;20074;-72
2021/06/25 02:16:48;;;;;;;22.77;7.55;;;;;;;25.09;56.12;94793.22;2973975;39;20045;-74
2021/06/25 02:18:50;;;;;;;15.65;6.20;;;;;;;25.18;55.95;94789.06;2972126;39;20446;-73
2021/06/25 02:20:51;;;;;;;19.60;6.60;;;;;;;25.26;55.90;94790.53;2974580;39;20079;-71
2021/06/25 02:22:53;;;;;;;18.08;7.05;;;;;;;25.33;55.50;94789.28;2973198;39;20417;-72
2021/06/25 02:24:55;;;;;;;20.25;6.65;;;;;;;25.38;55.59;94790.41;2972594;39;20099;-73
2021/06/25 02:26:57;;;;;;;15.23;6.75;;;;;;;25.37;55.41;94788.81;2970631;39;20060;-72
2021/06/25 02:28:58;;;;;;;17.92;7.00;;;;;;;25.37;55.63;94802.22;2973193;39;20209;-73
2021/06/25 02:31:00;;;;;;;18.98;6.55;;;;;;;25.36;55.68;94789.84;2972668;39;20072;-72
2021/06/25 02:33:02;;;;;;;18.17;6.10;;;;;;;25.38;55.46;94785.84;2973025;40;20047;-73
2021/06/25 02:35:05;;;;;;;17.13;6.22;;;;;;;25.41;55.55;94787.25;2973571;39;20155;-73
2021/06/25 02:37:07;;;;;;;21.33;7.20;;;;;;;25.40;55.74;94783.72;2972777;39;20089;-71
2021/06/25 02:39:08;;;;;;;17.80;6.22;;;;;;;25.43;55.67;94785.13;2974361;39;20152;-71
2021/06/25 02:41:10;;;;;;;21.27;6.47;;;;;;;25.39;55.87;94779.44;2975723;39;20059;-71
2021/06/25 02:43:12;;;;;;;12.07;5.90;;;;;;;25.36;56.00;94777.28;2972361;39;20047;-73
2021/06/25 02:45:14;;;;;;;15.73;6.53;;;;;;;25.36;55.91;94773.75;2972049;39;20367;-72
2021/06/25 02:47:16;;;;;;;20.13;6.68;;;;;;;25.35;56.13;94781.00;2975439;40;20044;-72
2021/06/25 02:49:18;;;;;;;19.08;6.93;;;;;;;25.36;56.03;94779.13;2974998;39;20055;-72
2021/06/25 02:51:19;;;;;;;15.32;6.15;;;;;;;25.32;56.15;94776.94;2975447;39;20055;-71
2021/06/25 02:53:21;;;;;;;20.85;7.32;;;;;;;25.31;56.22;94772.63;2972301;39;20173;-74
2021/06/25 02:55:23;;;;;;;21.45;6.75;;;;;;;25.04;56.81;94790.50;2967760;39;20160;-73
2021/06/25 02:57:25;;;;;;;21.83;7.00;;;;;;;24.71;57.67;94784.09;2973231;39;20428;-71
2021/06/25 02:59:26;;;;;;;19.15;6.63;;;;;;;24.41;58.72;94782.53;2968538;39;20140;-73
2021/06/25 03:01:28;;;;;;;14.48;6.50;;;;;;;24.35;58.94;94791.56;2971919;39;20530;-73
2021/06/25 03:03:30;;;;;;;20.05;6.22;;;;;;;24.23;59.59;94790.81;2974563;40;20060;-72
2021/06/25 03:05:32;;;;;;;18.75;6.20;;;;;;;24.32;59.29;94797.41;2965795;40;20056;-72
2021/06/25 03:07:33;;;;;;;15.10;6.55;;;;;;;24.49;58.97;94789.41;2973756;40;20071;-72
2021/06/25 03:09:35;;;;;;;14.35;6.93;;;;;;;24.61;58.54;94798.19;2968163;39;20060;-71
2021/06/25 03:11:37;;;;;;;21.38;6.63;;;;;;;24.78;57.96;94803.53;2969995;39;20069;-73
2021/06/25 03:13:39;;;;;;;19.60;6.80;;;;;;;24.93;57.87;94800.25;2972895;40;20076;-73
2021/06/25 03:15:41;;;;;;;17.07;7.40;;;;;;;25.01;57.96;94807.84;2971081;39;20360;-72
2021/06/25 03:17:43;;;;;;;16.13;7.40;;;;;;;25.11;57.57;94805.31;2965805;40;20088;-73
2021/06/25 03:19:45;;;;;;;22.45;7.32;;;;;;;25.20;57.47;94808.41;2972395;39;20056;-73
2021/06/25 03:21:46;;;;;;;12.27;5.68;;;;;;;25.24;57.42;94806.88;2974132;39;20425;-73
2021/06/25 03:23:48;;;;;;;11.27;5.95;;;;;;;25.26;56.94;94806.63;2966585;40;20138;-72
2021/06/25 03:25:50;;;;;;;16.45;6.75;;;;;;;25.26;56.78;94807.44;2971378;39;20141;-74
2021/06/25 03:27:52;;;;;;;24.83;7.13;;;;;;;25.24;57.36;94814.91;2971232;39;20056;-82
2021/06/25 03:29:53;;;;;;;17.83;6.68;;;;;;;25.23;57.17;94807.09;2966620;40;20278;-81
2021/06/25 03:31:55;;;;;;;17.05;6.45;;;;;;;25.23;56.85;94812.47;2973362;39;20316;-80
2021/06/25 03:33:57;;;;;;;16.30;6.68;;;;;;;25.30;56.76;94808.56;2970345;39;20080;-81
2021/06/25 03:35:59;;;;;;;16.75;5.93;;;;;;;25.38;56.64;94809.19;2974342;39;20086;-81
2021/06/25 03:38:01;;;;;;;22.40;7.30;;;;;;;25.46;56.07;94814.09;2975930;39;20051;-81
2021/06/25 03:40:09;;;;;;;18.95;6.80;;;;;;;25.48;56.16;94812.00;2971519;39;20137;-81
2021/06/25 03:42:11;;;;;;;19.05;7.15;;;;;;;25.41;56.30;94803.34;2973546;40;20059;-80
2021/06/25 03:44:12;;;;;;;17.25;6.20;;;;;;;25.44;56.22;94805.50;2972691;39;20068;-74
2021/06/25 03:46:14;;;;;;;16.38;6.03;;;;;;;25.46;56.38;94801.50;2973434;40;20468;-72
2021/06/25 03:48:16;;;;;;;18.35;6.93;;;;;;;25.51;56.15;94808.81;2973217;39;20092;-72
2021/06/25 03:50:18;;;;;;;17.65;6.55;;;;;;;25.54;56.13;94805.63;2974524;39;20055;-72
2021/06/25 03:52:20;;;;;;;17.17;6.88;;;;;;;25.57;55.91;94801.63;2969829;40;20056;-71
2021/06/25 03:54:22;;;;;;;22.95;6.60;;;;;;;25.64;55.64;94800.41;2968745;39;20055;-72
2021/06/25 03:56:24;;;;;;;21.60;6.97;;;;;;;25.73;55.80;94798.88;2966262;40;20388;-72
2021/06/25 03:58:26;;;;;;;25.23;6.32;;;;;;;25.78;55.54;94808.06;2967476;39;20442;-70
2021/06/25 04:00:28;;;;;;;17.55;6.57;;;;;;;25.84;55.81;94807.06;2975005;39;20136;-73
2021/06/25 04:02:30;;;;;;;18.80;6.65;;;;;;;25.92;55.28;94814.66;2971122;39;20107;-73
2021/06/25 04:04:32;;;;;;;18.05;6.88;;;;;;;25.98;55.32;94805.59;2967740;39;20508;-73
2021/06/25 04:06:34;;;;;;;17.35;6.95;;;;;;;26.02;55.08;94806.72;2966295;40;20048;-72
2021/06/25 04:08:36;;;;;;;14.85;6.32;;;;;;;26.01;55.42;94805.13;2968422;39;20068;-72
2021/06/25 04:10:38;;;;;;;15.45;6.80;;;;;;;26.07;55.10;94812.16;2968215;40;20061;-71
2021/06/25 04:12:39;;;;;;;17.88;6.50;;;;;;;26.07;55.01;94809.47;2967595;39;20060;-73
2021/06/25 04:14:41;;;;;;;14.23;7.20;;;;;;;26.11;55.27;94815.97;2969093;39;20341;-72
2021/06/25 04:16:43;;;;;;;15.90;8.50;;;;;;;26.18;54.79;94806.88;2967014;40;20053;-72
2021/06/25 04:18:45;;;;;;;17.45;6.25;;;;;;;26.25;54.33;94813.66;2968101;39;20401;-72
2021/06/25 04:20:47;;;;;;;20.30;6.63;;;;;;;26.32;54.18;94813.44;2968106;39;20140;-73
2021/06/25 04:22:48;;;;;;;16.08;6.43;;;;;;;26.37;54.25;94810.81;2968329;39;20149;-72
2021/06/25 04:24:50;;;;;;;15.35;6.45;;;;;;;26.40;54.20;94812.19;2966932;39;20060;-72
2021/06/25 04:26:52;;;;;;;13.55;6.97;;;;;;;26.43;53.80;94809.78;2972334;39;20108;-72
2021/06/25 04:28:54;;;;;;;17.38;7.03;;;;;;;26.47;53.81;94804.72;2969608;39;20409;-74
2021/06/25 04:30:55;;;;;;;13.02;6.45;;;;;;;26.50;53.57;94807.72;2970512;39;20066;-73
2021/06/25 04:32:59;;;;;;;16.23;6.43;;;;;;;26.56;53.46;94803.19;2972425;39;20059;-71
2021/06/25 04:35:01;;;;;;;22.25;8.15;;;;;;;26.59;53.45;94804.56;2973256;39;20079;-72
2021/06/25 04:37:03;;;;;;;15.95;7.45;;;;;;;26.59;52.94;94800.03;2973703;39;20318;-72
2021/06/25 04:39:05;;;;;;;26.88;8.00;;;;;;;26.65;53.19;94798.16;2971319;39;20056;-71
2021/06/25 04:41:07;;;;;;;22.95;6.88;;;;;;;26.70;53.06;94803.59;2972737;39;20088;-73
2021/06/25 04:43:11;;;;;;;16.67;7.10;;;;;;;26.74;52.81;94786.69;2974139;39;20159;-75
2021/06/25 04:45:14;;;;;;;30.20;7.85;;;;;;;26.77;52.95;94793.44;2973677;39;20152;-72
2021/06/25 04:47:15;;;;;;;22.10;7.43;;;;;;;26.81;52.64;94788.34;2973810;39;20052;-74
2021/06/25 04:49:17;;;;;;;22.58;7.13;;;;;;;26.83;52.42;94792.41;2970128;39;20060;-74
2021/06/25 04:51:19;;;;;;;19.92;8.75;;;;;;;26.86;52.76;94791.06;2977352;39;20079;-81
2021/06/25 04:53:20;;;;;;;16.77;7.32;;;;;;;26.93;52.53;94786.25;2979965;39;20379;-82
2021/06/25 04:55:22;;;;;;;23.75;7.43;;;;;;;26.94;52.25;94791.38;2975931;39;20056;-81
2021/06/25 04:57:24;;;;;;;20.88;7.78;;;;;;;26.96;52.30;94791.94;2974879;39;20117;-81
2021/06/25 04:59:29;;;;;;;20.48;8.00;;;;;;;26.96;52.38;94800.00;2975142;39;20407;-81
2021/06/25 05:01:32;;;;;;;19.27;7.70;;;;;;;26.81;52.34;94805.28;2965626;39;20064;-83
2021/06/25 05:03:36;;;;;;;21.23;7.78;;;;;;;26.81;52.32;94809.84;2975095;40;20314;-82
2021/06/25 05:05:39;;;;;;;21.80;7.05;;;;;;;26.89;52.34;94804.00;2974383;39;20113;-82
2021/06/25 05:07:41;;;;;;;21.77;8.00;;;;;;;26.94;51.16;94810.19;2974264;39;20097;-81
2021/06/25 05:09:43;;;;;;;20.25;7.40;;;;;;;27.02;50.80;94808.09;2972070;39;20088;-82
2021/06/25 05:11:45;;;;;;;25.52;7.82;;;;;;;27.09;51.16;94812.19;2969434;39;20071;-82
2021/06/25 05:13:47;;;;;;;15.30;7.97;;;;;;;27.16;51.04;94804.69;2971417;39;20056;-80
2021/06/25 05:15:48;;;;;;;24.27;8.18;;;;;;;27.15;51.57;94807.66;2967302;39;20444;-84
2021/06/25 05:17:50;;;;;;;32.03;11.13;;;;;;;26.89;52.77;94807.50;2967801;39;20060;-72
2021/06/25 05:20:13;;;;;;;25.20;9.27;;;;;;;26.81;52.99;94802.59;2972002;39;20048;-72
2021/06/25 05:22:14;;;;;;;22.20;8.40;;;;;;;26.87;52.81;94800.75;2969896;40;20148;-71
2021/06/25 05:24:16;;;;;;;28.42;8.70;;;;;;;26.47;53.98;94788.59;2972563;39;20056;-72
2021/06/25 05:26:19;;;;;;;23.85;8.93;;;;;;;26.47;54.27;94796.66;2967144;39;20053;-72
2021/06/25 05:28:21;;;;;;;19.52;7.93;;;;;;;26.52;53.73;94792.16;2968083;39;20092;-72
2021/06/25 05:30:22;;;;;;;20.05;8.27;;;;;;;26.60;53.78;94803.50;2966922;39;20754;-72
2021/06/25 05:32:24;;;;;;;23.38;7.85;;;;;;;26.62;53.89;94799.50;2970955;40;20064;-72
2021/06/25 05:34:27;;;;;;;22.05;8.50;;;;;;;26.34;53.36;94795.22;2969866;39;20063;-73
2021/06/25 05:36:29;;;;;;;21.02;8.95;;;;;;;26.13;54.02;94800.38;2968393;39;20079;-73
2021/06/25 05:38:30;;;;;;;17.67;8.75;;;;;;;25.96;54.55;94799.66;2958444;40;20076;-73
2021/06/25 05:40:32;;;;;;;17.27;8.75;;;;;;;26.05;54.85;94794.66;2970999;39;20084;-72
2021/06/25 05:42:34;;;;;;;16.20;7.80;;;;;;;26.23;54.23;94794.31;2974469;40;20060;-73
2021/06/25 05:44:36;;;;;;;18.83;8.35;;;;;;;26.44;53.99;94807.94;2973324;40;20132;-72
2021/06/25 05:46:38;;;;;;;23.83;8.30;;;;;;;26.68;53.39;94809.22;2973319;40;20132;-72
2021/06/25 05:48:40;;;;;;;17.05;7.20;;;;;;;26.91;52.99;94805.34;2972094;39;20084;-74
2021/06/25 05:50:42;;;;;;;24.75;8.82;;;;;;;26.98;52.45;94807.00;2974086;40;20128;-74
2021/06/25 05:52:43;;;;;;;18.85;8.82;;;;;;;27.12;51.86;94794.72;2968986;39;20067;-84
2021/06/25 05:54:45;;;;;;;17.15;8.20;;;;;;;27.24;51.48;94802.63;2968632;39;20072;-73
2021/06/25 05:56:47;;;;;;;16.65;8.10;;;;;;;27.34;51.54;94806.16;2967050;39;20084;-73
2021/06/25 05:58:50;;;;;;;24.15;9.05;;;;;;;27.50;51.06;94803.53;2967470;39;20142;-74
2021/06/25 06:00:51;;;;;;;21.63;8.00;;;;;;;27.63;50.66;94804.94;2967379;39;20125;-75
2021/06/25 06:02:53;;;;;;;18.63;8.00;;;;;;;27.67;50.17;94806.03;2969869;39;20068;-74
2021/06/25 06:04:55;;;;;;;26.15;8.48;;;;;;;27.76;49.61;94809.84;2968123;40;20141;-72
2021/06/25 06:06:56;;;;;;;18.70;7.07;;;;;;;27.87;48.96;94803.44;2968027;39;20535;-75
2021/06/25 06:08:58;;;;;;;20.98;8.73;;;;;;;27.82;48.84;94811.47;2967520;39;20060;-72
2021/06/25 06:11:00;;;;;;;21.27;10.20;;;;;;;27.69;49.08;94814.66;2968127;39;20156;-76
2021/06/25 06:14:39;;;;;;;18.75;9.23;;;;;;;27.63;49.74;94813.81;2999094;39;20388;-73
2021/06/25 06:16:41;;;;;;;24.35;8.27;;;;;;;27.48;50.44;94813.75;2998176;39;20073;-74
2021/06/25 06:18:48;;;;;;;22.50;9.20;;;;;;;27.42;50.06;94806.72;2999582;39;20091;-74
2021/06/25 06:20:49;;;;;;;18.20;7.78;;;;;;;27.11;51.09;94817.31;2999164;39;20106;-73
2021/06/25 06:32:26;;;;;;;32.22;8.93;;;;;;;27.48;50.59;94803.00;2998411;39;20108;-73
2021/06/25 06:34:34;;;;;;;25.40;8.30;;;;;;;27.67;50.12;94795.28;2999501;39;20063;-74
2021/06/25 06:36:45;;;;;;;18.55;8.43;;;;;;;27.68;50.16;94802.25;2998454;39;20186;-72
2021/06/25 06:38:47;;;;;;;22.88;8.02;;;;;;;27.77;50.41;94792.63;2993510;39;20108;-72
2021/06/25 06:40:48;;;;;;;21.40;8.73;;;;;;;27.83;49.98;94796.13;2999405;39;20054;-81
2021/06/25 06:42:50;;;;;;;29.50;9.38;;;;;;;27.78;49.31;94797.72;2996465;39;20051;-84
2021/06/25 06:44:52;;;;;;;20.25;8.20;;;;;;;27.94;50.09;94798.63;3001696;39;20049;-84
2021/06/25 06:46:54;;;;;;;16.58;8.20;;;;;;;28.08;49.28;94801.59;2996394;39;20401;-82
2021/06/25 06:48:55;;;;;;;21.48;8.30;;;;;;;28.23;49.15;94791.94;3004144;39;20123;-83
2021/06/25 06:50:57;;;;;;;27.02;10.15;;;;;;;28.22;49.12;94795.69;2990513;39;20435;-83
2021/06/25 06:52:59;;;;;;;29.13;9.38;;;;;;;28.00;49.16;94794.03;2989419;39;20187;-82
2021/06/25 06:55:01;;;;;;;25.58;9.32;;;;;;;28.13;49.35;94796.22;2999469;39;20043;-84
2021/06/25 06:57:03;;;;;;;24.58;9.52;;;;;;;28.39;48.55;94797.06;2989889;39;20059;-84
2021/06/25 06:59:05;;;;;;;42.22;14.52;;;;;;;28.43;49.17;94789.25;2989532;39;20064;-82
2021/06/25 07:01:08;;;;;;;29.88;10.80;;;;;;;28.47;49.41;94784.13;3000545;39;20069;-85
2021/06/25 07:03:29;;;;;;;25.88;9.85;;;;;;;28.35;49.03;94798.69;3001149;39;20110;-83
2021/06/25 07:05:31;;;;;;;23.58;8.27;;;;;;;28.06;49.61;94792.19;2999395;39;20087;-84
2021/06/25 07:07:32;;;;;;;24.38;9.70;;;;;;;28.31;49.69;94799.50;2999246;39;20495;-81
2021/06/25 07:09:34;;;;;;;24.13;9.57;;;;;;;28.57;49.23;94792.25;2999174;39;20103;-82
2021/06/25 07:11:36;;;;;;;24.65;11.88;;;;;;;28.62;48.87;94799.53;2999774;39;20091;-83
2021/06/25 07:13:37;;;;;;;29.67;10.25;;;;;;;28.59;49.15;94796.28;2999798;39;20060;-81
2021/06/25 07:15:44;;;;;;;33.90;12.82;;;;;;;28.54;49.23;94801.66;2998151;39;20065;-83
2021/06/25 07:17:46;;;;;;;31.67;10.88;;;;;;;28.67;49.07;94799.50;2990216;39;20095;-81
2021/06/25 07:19:49;;;;;;;28.17;11.30;;;;;;;28.42;49.02;94801.13;2988888;39;20142;-82
2021/06/25 07:21:50;;;;;;;24.45;8.32;;;;;;;28.44;49.44;94796.25;2989857;39;20111;-81
2021/06/25 07:23:52;;;;;;;18.77;8.35;;;;;;;28.77;49.09;94796.81;2989381;39;20439;-84
2021/06/25 07:25:54;;;;;;;24.15;8.65;;;;;;;28.73;48.41;94796.53;2993516;39;20200;-85
2021/06/25 07:27:56;;;;;;;29.80;10.23;;;;;;;28.85;47.87;94798.16;2996431;39;20083;-81
2021/06/25 07:29:58;;;;;;;27.30;9.63;;;;;;;28.94;47.53;94804.63;2994342;39;20303;-81
2021/06/25 07:32:00;;;;;;;27.10;9.02;;;;;;;28.87;48.11;94796.00;2993343;39;20063;-82
2021/06/25 07:34:02;;;;;;;19.85;9.85;;;;;;;28.57;48.99;94787.66;2994099;39;20066;-80
2021/06/25 07:36:04;;;;;;;31.00;10.65;;;;;;;28.82;48.47;94791.41;2994760;39;20047;-82
2021/06/25 07:38:05;;;;;;;24.88;9.13;;;;;;;28.98;48.02;94792.22;2976095;39;20485;-83
2021/06/25 07:40:08;;;;;;;21.83;8.65;;;;;;;29.08;47.71;94794.06;2992281;39;20051;-82
2021/06/25 07:42:10;;;;;;;29.10;10.02;;;;;;;29.12;47.70;94785.19;2982888;39;20080;-81
2021/06/25 07:44:12;;;;;;;20.65;9.65;;;;;;;29.30;47.04;94783.81;2983594;39;20052;-82
2021/06/25 07:46:14;;;;;;;38.65;22.42;;;;;;;29.47;47.35;94780.78;2986893;39;20079;-83
2021/06/25 07:48:16;;;;;;;24.20;9.15;;;;;;;29.53;46.94;94781.56;2990854;39;20416;-82
2021/06/25 07:50:18;;;;;;;21.63;10.13;;;;;;;29.49;46.77;94775.09;2989925;39;20062;-82
2021/06/25 07:52:20;;;;;;;18.27;8.70;;;;;;;29.66;46.60;94770.16;2993350;39;20308;-81
2021/06/25 07:54:22;;;;;;;20.00;8.30;;;;;;;29.55;46.62;94777.47;2993124;39;20043;-82
2021/06/25 07:56:23;;;;;;;26.60;9.20;;;;;;;29.54;47.10;94767.00;2993366;39;20357;-82
2021/06/25 07:58:25;;;;;;;19.55;8.40;;;;;;;29.65;46.86;94767.75;2992962;39;20175;-82
2021/06/25 08:00:27;;;;;;;26.25;8.70;;;;;;;29.69;46.81;94775.03;2993022;39;20102;-73
2021/06/25 08:02:29;;;;;;;23.55;9.43;;;;;;;29.74;46.75;94771.50;2991326;39;20047;-82
2021/06/25 08:04:32;;;;;;;22.30;8.80;;;;;;;29.98;46.52;94771.63;2992554;39;20060;-81
2021/06/25 08:06:34;;;;;;;18.48;8.75;;;;;;;30.02;46.58;94778.91;2993135;39;20345;-81
2021/06/25 08:08:35;;;;;;;23.52;9.65;;;;;;;30.06;46.69;94773.75;2992817;39;20051;-83
2021/06/25 08:10:37;;;;;;;26.77;8.60;;;;;;;29.84;47.20;94767.97;2992765;39;20053;-84
2021/06/25 08:12:39;;;;;;;18.17;8.77;;;;;;;29.86;47.33;94771.16;2983274;39;20051;-83
2021/06/25 08:14:41;;;;;;;29.80;9.68;;;;;;;29.73;47.50;94770.69;2983497;39;20489;-82
2021/06/25 08:16:43;;;;;;;24.37;9.27;;;;;;;29.66;47.97;94778.25;2982660;39;20092;-82
2021/06/25 08:18:45;;;;;;;28.77;9.55;;;;;;;29.59;47.83;94777.75;2992779;39;20403;-84
2021/06/25 08:20:47;;;;;;;21.88;8.50;;;;;;;29.86;47.46;94774.69;2993039;39;20093;-82
2021/06/25 08:22:48;;;;;;;26.45;8.55;;;;;;;30.23;46.88;94772.56;2993375;39;20062;-83
2021/06/25 08:24:50;;;;;;;21.90;7.38;;;;;;;30.41;45.50;94777.31;2992920;39;20091;-83
2021/06/25 08:26:55;;;;;;;18.75;8.38;;;;;;;30.60;45.89;94772.03;2992409;39;20063;-82
2021/06/25 08:28:57;;;;;;;18.63;7.78;;;;;;;30.77;45.45;94777.81;2991105;39;20063;-83
2021/06/25 08:30:58;;;;;;;19.27;7.75;;;;;;;30.91;45.07;94772.59;2989927;39;20136;-82
2021/06/25 08:33:00;;;;;;;19.13;7.80;;;;;;;31.08;44.54;94771.34;2992618;39;20119;-83
2021/06/25 08:35:04;;;;;;;22.52;7.47;;;;;;;31.06;44.28;94771.63;2993649;39;20051;-83
2021/06/25 08:37:05;;;;;;;27.00;8.32;;;;;;;31.25;43.70;94773.59;2982895;39;20067;-73
2021/06/25 08:39:08;;;;;;;26.10;7.97;;;;;;;31.15;43.48;94772.63;2992636;39;20063;-72
2021/06/25 08:41:10;;;;;;;21.23;6.67;;;;;;;31.26;41.94;94775.22;2982598;39;20155;-73
2021/06/25 08:43:12;;;;;;;13.75;5.75;;;;;;;31.49;36.88;94769.03;2989955;39;20292;-73
2021/06/25 08:45:15;;;;;;;17.90;4.93;;;;;;;31.57;33.94;94773.78;2979061;39;20451;-71
2021/06/25 08:47:17;;;;;;;;;;;;;;;31.63;33.80;94767.22;2986756;39;20107;-74
2021/06/25 08:49:19;;;;;;;21.02;6.25;;;;;;;31.71;32.95;94770.38;2992870;39;20027;-73
2021/06/25 08:51:21;;;;;;;21.52;5.28;;;;;;;31.73;33.95;94763.56;2993540;39;20410;-74
2021/06/25 08:53:24;;;;;;;19.93;5.93;;;;;;;31.75;34.03;94763.25;2992282;39;20487;-73
2021/06/25 08:55:25;;;;;;;17.93;4.60;;;;;;;31.51;33.84;94763.31;2983321;39;20428;-74
2021/06/25 08:57:32;;;;;;;21.95;5.30;;;;;;;31.67;35.00;94756.63;2991727;39;20393;-72
2021/06/25 08:59:34;;;;;;;26.63;6.28;;;;;;;31.93;34.79;94756.28;2992431;39;20069;-74
2021/06/25 09:01:37;;;;;;;17.90;5.25;;;;;;;31.78;34.59;94749.97;2989045;39;20104;-72
2021/06/25 09:03:40;;;;;;;17.52;5.25;;;;;;;31.57;34.91;94759.44;2989057;39;20051;-74
2021/06/25 09:05:42;;;;;;;21.17;5.05;;;;;;;31.65;33.06;94753.38;2992623;39;20051;-71
2021/06/25 09:07:44;;;;;;;21.23;6.38;;;;;;;31.96;34.09;94753.75;2991524;39;20157;-73
2021/06/25 09:09:49;;;;;;;21.77;5.70;;;;;;;31.95;33.76;94752.16;2992186;39;20039;-73
2021/06/25 09:12:07;;;;;;;26.98;6.13;;;;;;;32.16;34.12;94754.59;2992070;39;20061;-73
2021/06/25 09:14:10;;;;;;;25.15;6.65;;;;;;;32.40;34.06;94759.94;2988972;39;20063;-75
2021/06/25 09:16:22;;;;;;;21.20;5.82;;;;;;;32.61;34.82;94757.72;2981884;39;20126;-72
2021/06/25 09:18:25;;;;;;;23.60;5.30;;;;;;;32.36;34.79;94746.16;2986928;39;20468;-72
2021/06/25 09:20:37;;;;;;;17.58;5.32;;;;;;;32.51;34.06;94753.25;2992814;39;20155;-73
2021/06/25 09:22:49;;;;;;;26.80;6.93;;;;;;;32.69;33.27;94750.81;2992081;39;20293;-72
2021/06/25 09:25:06;;;;;;;18.42;5.25;;;;;;;32.74;32.37;94746.13;2993714;39;20066;-74
2021/06/25 09:27:09;;;;;;;22.75;4.75;;;;;;;32.70;31.50;94747.81;2992600;39;20079;-72
2021/06/25 09:29:20;;;;;;;26.85;9.98;;;;;;;32.75;31.14;94747.72;2982726;39;20192;-73
2021/06/25 09:31:24;;;;;;;17.02;4.50;;;;;;;32.92;29.44;94746.34;2990826;39;20434;-71
2021/06/25 09:33:26;;;;;;;16.20;4.72;;;;;;;33.00;29.98;94748.38;2981678;39;20066;-72
2021/06/25 09:35:28;;;;;;;15.68;4.30;;;;;;;33.04;29.92;94742.03;2991947;39;20055;-73
2021/06/25 09:37:41;;;;;;;16.73;4.57;;;;;;;33.22;30.26;94740.38;2982887;39;20054;-73
2021/06/25 09:39:57;;;;;;;21.77;4.88;;;;;;;33.27;30.81;94731.31;2973808;39;20320;-74
2021/06/25 09:41:58;;;;;;;20.60;4.07;;;;;;;33.43;31.42;94731.81;2987982;39;20079;-73